sensor_id;sensor_type;location;lat;lon;timestamp;pressure;altitude;pressure_sealevel;temperature
9798;BMP180;4938;57.492;12.652;2022-09-09T00:00:14;81751.88;;;-136.68
9798;BMP180;4938;57.492;12.652;2022-09-09T00:03:06;81733.66;;;-136.68
9798;BMP180;4938;57.492;12.652;2022-09-09T00:06:03;81731.63;;;-136.68
9798;BMP180;4938;57.492;12.652;2022-09-09T00:09:00;81749.84;;;-136.68
9798;BMP180;4938;57.492;12.652;2022-09-09T00:11:51;81759.97;;;-136.68
9798;BMP180;4938;57.492;12.652;2022-09-09T00:14:45;81743.78;;;-136.68
9798;BMP180;4938;57.492;12.652;2022-09-09T00:17:39;81764.00;;;-136.68
9798;BMP180;4938;57.492;12.652;2022-09-09T00:20:32;81749.84;;;-136.68
9798;BMP180;4938;57.492;12.652;2022-09-09T00:23:24;81753.91;;;-136.68
9798;BMP180;4938;57.492;12.652;2022-09-09T00:26:17;81755.91;;;-136.68
9798;BMP180;4938;57.492;12.652;2022-09-09T00:29:14;81739.72;;;-136.68
9798;BMP180;4938;57.492;12.652;2022-09-09T00:32:12;81322.91;;;-136.68
9798;BMP180;4938;57.492;12.652;2022-09-09T00:35:04;81545.47;;;-136.68
9798;BMP180;4938;57.492;12.652;2022-09-09T00:38:00;81739.72;;;-136.68
9798;BMP180;4938;57.492;12.652;2022-09-09T00:40:50;81749.84;;;-136.68
9798;BMP180;4938;57.492;12.652;2022-09-09T00:43:40;81759.97;;;-136.68
9798;BMP180;4938;57.492;12.652;2022-09-09T00:47:04;81600.09;;;-136.68
9798;BMP180;4938;57.492;12.652;2022-09-09T00:50:03;81755.91;;;-136.68
9798;BMP180;4938;57.492;12.652;2022-09-09T00:52:56;81755.91;;;-136.68
9798;BMP180;4938;57.492;12.652;2022-09-09T00:55:48;81762.00;;;-136.68
9798;BMP180;4938;57.492;12.652;2022-09-09T00:58:36;81630.47;;;-136.68
9798;BMP180;4938;57.492;12.652;2022-09-09T01:01:23;81770.09;;;-136.68
9798;BMP180;4938;57.492;12.652;2022-09-09T01:04:13;81776.16;;;-136.68
9798;BMP180;4938;57.492;12.652;2022-09-09T01:07:12;81749.84;;;-136.68
9798;BMP180;4938;57.492;12.652;2022-09-09T01:10:04;81768.06;;;-136.68
9798;BMP180;4938;57.492;12.652;2022-09-09T01:12:56;81411.94;;;-136.68
9798;BMP180;4938;57.492;12.652;2022-09-09T01:15:46;81731.63;;;-136.68
9798;BMP180;4938;57.492;12.652;2022-09-09T01:18:36;81743.78;;;-136.68
9798;BMP180;4938;57.492;12.652;2022-09-09T01:21:37;81753.91;;;-136.68
9798;BMP180;4938;57.492;12.652;2022-09-09T01:24:31;81747.81;;;-136.68
9798;BMP180;4938;57.492;12.652;2022-09-09T01:27:23;81762.00;;;-136.68
9798;BMP180;4938;57.492;12.652;2022-09-09T01:30:13;81737.72;;;-136.68
9798;BMP180;4938;57.492;12.652;2022-09-09T01:33:01;81759.97;;;-136.68
9798;BMP180;4938;57.492;12.652;2022-09-09T01:35:52;81585.94;;;-136.68
9798;BMP180;4938;57.492;12.652;2022-09-09T01:38:40;81755.91;;;-136.68
9798;BMP180;4938;57.492;12.652;2022-09-09T01:41:27;81768.06;;;-136.68
9798;BMP180;4938;57.492;12.652;2022-09-09T01:44:16;81764.00;;;-136.68
9798;BMP180;4938;57.492;12.652;2022-09-09T01:47:04;81757.94;;;-136.68
9798;BMP180;4938;57.492;12.652;2022-09-09T01:49:51;81757.94;;;-136.68
9798;BMP180;4938;57.492;12.652;2022-09-09T01:52:38;81762.00;;;-136.68
9798;BMP180;4938;57.492;12.652;2022-09-09T01:55:29;81755.91;;;-136.68
9798;BMP180;4938;57.492;12.652;2022-09-09T01:58:25;81743.78;;;-136.68
9798;BMP180;4938;57.492;12.652;2022-09-09T02:01:24;81759.97;;;-136.68
9798;BMP180;4938;57.492;12.652;2022-09-09T02:04:24;81764.00;;;-136.68
9798;BMP180;4938;57.492;12.652;2022-09-09T02:07:28;81749.84;;;-136.68
9798;BMP180;4938;57.492;12.652;2022-09-09T02:10:21;81766.03;;;-136.68
9798;BMP180;4938;57.492;12.652;2022-09-09T02:13:13;81723.53;;;-136.68
9798;BMP180;4938;57.492;12.652;2022-09-09T02:16:04;81780.19;;;-136.68
9798;BMP180;4938;57.492;12.652;2022-09-09T02:18:57;81747.81;;;-136.68
9798;BMP180;4938;57.492;12.652;2022-09-09T02:21:47;81723.53;;;-136.68
9798;BMP180;4938;57.492;12.652;2022-09-09T02:24:36;81476.69;;;-136.68
9798;BMP180;4938;57.492;12.652;2022-09-09T02:27:23;81747.81;;;-136.68
9798;BMP180;4938;57.492;12.652;2022-09-09T02:30:11;81707.34;;;-136.68
9798;BMP180;4938;57.492;12.652;2022-09-09T02:32:59;81768.06;;;-136.68
9798;BMP180;4938;57.492;12.652;2022-09-09T02:35:50;81768.06;;;-136.68
9798;BMP180;4938;57.492;12.652;2022-09-09T02:38:40;81670.94;;;-136.68
9798;BMP180;4938;57.492;12.652;2022-09-09T02:41:31;81707.34;;;-136.68
9798;BMP180;4938;57.492;12.652;2022-09-09T02:44:19;81770.09;;;-136.68
9798;BMP180;4938;57.492;12.652;2022-09-09T02:47:25;81772.09;;;-136.68
9798;BMP180;4938;57.492;12.652;2022-09-09T02:50:16;81755.91;;;-136.68
9798;BMP180;4938;57.492;12.652;2022-09-09T02:53:12;81764.00;;;-136.68
9798;BMP180;4938;57.492;12.652;2022-09-09T02:56:04;81764.00;;;-136.68
9798;BMP180;4938;57.492;12.652;2022-09-09T02:58:52;81766.03;;;-136.68
9798;BMP180;4938;57.492;12.652;2022-09-09T03:01:40;81782.22;;;-136.68
9798;BMP180;4938;57.492;12.652;2022-09-09T03:04:26;81782.22;;;-136.68
9798;BMP180;4938;57.492;12.652;2022-09-09T03:07:13;81762.00;;;-136.68
9798;BMP180;4938;57.492;12.652;2022-09-09T03:10:03;81766.03;;;-136.68
9798;BMP180;4938;57.492;12.652;2022-09-09T03:12:50;81764.00;;;-136.68
9798;BMP180;4938;57.492;12.652;2022-09-09T03:15:37;81759.97;;;-136.68
9798;BMP180;4938;57.492;12.652;2022-09-09T03:18:24;81755.91;;;-136.68
9798;BMP180;4938;57.492;12.652;2022-09-09T03:21:11;81800.44;;;-136.68
9798;BMP180;4938;57.492;12.652;2022-09-09T03:23:58;81778.19;;;-136.68
9798;BMP180;4938;57.492;12.652;2022-09-09T03:26:46;81762.00;;;-136.68
9798;BMP180;4938;57.492;12.652;2022-09-09T03:29:33;81759.97;;;-136.68
9798;BMP180;4938;57.492;12.652;2022-09-09T03:32:20;81755.91;;;-136.68
9798;BMP180;4938;57.492;12.652;2022-09-09T03:35:08;81751.88;;;-136.68
9798;BMP180;4938;57.492;12.652;2022-09-09T03:37:55;81739.72;;;-136.68
9798;BMP180;4938;57.492;12.652;2022-09-09T03:40:48;81729.63;;;-136.68
9798;BMP180;4938;57.492;12.652;2022-09-09T03:43:37;81753.91;;;-136.68
9798;BMP180;4938;57.492;12.652;2022-09-09T03:46:25;81610.22;;;-136.68
9798;BMP180;4938;57.492;12.652;2022-09-09T03:49:12;81776.16;;;-136.68
9798;BMP180;4938;57.492;12.652;2022-09-09T03:51:59;81755.91;;;-136.68
9798;BMP180;4938;57.492;12.652;2022-09-09T03:54:46;81741.75;;;-136.68
9798;BMP180;4938;57.492;12.652;2022-09-09T03:57:33;81764.00;;;-136.68
9798;BMP180;4938;57.492;12.652;2022-09-09T04:00:22;81778.19;;;-136.68
9798;BMP180;4938;57.492;12.652;2022-09-09T04:03:10;81780.19;;;-136.68
9798;BMP180;4938;57.492;12.652;2022-09-09T04:05:59;81780.19;;;-136.68
9798;BMP180;4938;57.492;12.652;2022-09-09T04:08:46;81768.06;;;-136.68
9798;BMP180;4938;57.492;12.652;2022-09-09T04:11:34;81774.13;;;-136.68
9798;BMP180;4938;57.492;12.652;2022-09-09T04:14:21;81770.09;;;-136.68
9798;BMP180;4938;57.492;12.652;2022-09-09T04:17:09;81764.00;;;-136.68
9798;BMP180;4938;57.492;12.652;2022-09-09T04:19:56;81733.66;;;-136.68
9798;BMP180;4938;57.492;12.652;2022-09-09T04:22:43;81743.78;;;-136.68
9798;BMP180;4938;57.492;12.652;2022-09-09T04:25:30;81747.81;;;-136.68
9798;BMP180;4938;57.492;12.652;2022-09-09T04:28:19;81735.69;;;-136.68
9798;BMP180;4938;57.492;12.652;2022-09-09T04:31:08;81772.09;;;-136.68
9798;BMP180;4938;57.492;12.652;2022-09-09T04:33:58;81766.03;;;-136.68
9798;BMP180;4938;57.492;12.652;2022-09-09T04:36:47;81731.63;;;-136.68
9798;BMP180;4938;57.492;12.652;2022-09-09T04:39:34;81739.72;;;-136.68
9798;BMP180;4938;57.492;12.652;2022-09-09T04:42:21;81751.88;;;-136.68
9798;BMP180;4938;57.492;12.652;2022-09-09T04:45:09;81695.22;;;-136.68
9798;BMP180;4938;57.492;12.652;2022-09-09T04:47:58;81691.16;;;-136.68
9798;BMP180;4938;57.492;12.652;2022-09-09T04:50:55;81541.44;;;-136.68
9798;BMP180;4938;57.492;12.652;2022-09-09T04:53:42;81723.53;;;-136.68
9798;BMP180;4938;57.492;12.652;2022-09-09T04:56:29;81674.97;;;-136.68
9798;BMP180;4938;57.492;12.652;2022-09-09T04:59:16;81363.38;;;-136.68
9798;BMP180;4938;57.492;12.652;2022-09-09T05:02:03;81339.09;;;-136.68
9798;BMP180;4938;57.492;12.652;2022-09-09T05:04:50;81339.09;;;-136.68
9798;BMP180;4938;57.492;12.652;2022-09-09T05:07:38;81335.03;;;-136.68
9798;BMP180;4938;57.492;12.652;2022-09-09T05:10:25;81328.97;;;-136.68
9798;BMP180;4938;57.492;12.652;2022-09-09T05:13:12;81284.47;;;-136.68
9798;BMP180;4938;57.492;12.652;2022-09-09T05:15:59;81254.13;;;-136.68
9798;BMP180;4938;57.492;12.652;2022-09-09T05:18:46;81270.31;;;-136.68
9798;BMP180;4938;57.492;12.652;2022-09-09T05:21:33;81229.84;;;-136.68
9798;BMP180;4938;57.492;12.652;2022-09-09T05:24:21;81262.22;;;-136.68
9798;BMP180;4938;57.492;12.652;2022-09-09T05:27:09;81318.84;;;-136.68
9798;BMP180;4938;57.492;12.652;2022-09-09T05:29:57;81357.31;;;-136.68
9798;BMP180;4938;57.492;12.652;2022-09-09T05:32:44;81430.13;;;-136.68
9798;BMP180;4938;57.492;12.652;2022-09-09T05:35:34;81561.66;;;-136.68
9798;BMP180;4938;57.492;12.652;2022-09-09T05:38:21;81472.63;;;-136.68
9798;BMP180;4938;57.492;12.652;2022-09-09T05:41:12;81644.63;;;-136.68
9798;BMP180;4938;57.492;12.652;2022-09-09T05:44:01;81583.91;;;-136.68
9798;BMP180;4938;57.492;12.652;2022-09-09T05:46:49;81507.03;;;-136.68
9798;BMP180;4938;57.492;12.652;2022-09-09T05:49:36;81351.22;;;-136.68
9798;BMP180;4938;57.492;12.652;2022-09-09T05:52:23;81367.41;;;-136.68
9798;BMP180;4938;57.492;12.652;2022-09-09T05:55:11;81464.53;;;-136.68
9798;BMP180;4938;57.492;12.652;2022-09-09T05:57:59;81579.88;;;-136.68
9798;BMP180;4938;57.492;12.652;2022-09-09T06:00:46;81626.41;;;-136.68
9798;BMP180;4938;57.492;12.652;2022-09-09T06:03:34;81640.56;;;-136.68
9798;BMP180;4938;57.492;12.652;2022-09-09T06:06:23;81502.97;;;-136.68
9798;BMP180;4938;57.492;12.652;2022-09-09T06:09:11;81339.09;;;-136.68
9798;BMP180;4938;57.492;12.652;2022-09-09T06:11:59;81316.84;;;-136.68
9798;BMP180;4938;57.492;12.652;2022-09-09T06:14:47;81345.16;;;-136.68
9798;BMP180;4938;57.492;12.652;2022-09-09T06:17:36;81353.25;;;-136.68
9798;BMP180;4938;57.492;12.652;2022-09-09T06:20:24;81375.50;;;-136.68
9798;BMP180;4938;57.492;12.652;2022-09-09T06:23:11;81337.06;;;-136.68
9798;BMP180;4938;57.492;12.652;2022-09-09T06:26:03;81314.81;;;-136.68
9798;BMP180;4938;57.492;12.652;2022-09-09T06:28:52;81211.63;;;-136.68
9798;BMP180;4938;57.492;12.652;2022-09-09T06:31:40;81296.59;;;-136.68
9798;BMP180;4938;57.492;12.652;2022-09-09T06:34:27;81229.84;;;-136.68
9798;BMP180;4938;57.492;12.652;2022-09-09T06:37:14;81278.41;;;-136.68
9798;BMP180;4938;57.492;12.652;2022-09-09T06:40:02;81294.59;;;-136.68
9798;BMP180;4938;57.492;12.652;2022-09-09T06:42:49;81310.75;;;-136.68
9798;BMP180;4938;57.492;12.652;2022-09-09T06:45:36;81331.00;;;-136.68
9798;BMP180;4938;57.492;12.652;2022-09-09T06:48:24;81300.66;;;-136.68
9798;BMP180;4938;57.492;12.652;2022-09-09T06:51:15;81326.94;;;-136.68
9798;BMP180;4938;57.492;12.652;2022-09-09T06:54:03;81324.94;;;-136.68
9798;BMP180;4938;57.492;12.652;2022-09-09T06:56:51;81310.75;;;-136.68
9798;BMP180;4938;57.492;12.652;2022-09-09T06:59:39;81316.84;;;-136.68
9798;BMP180;4938;57.492;12.652;2022-09-09T07:02:25;81308.75;;;-136.68
9798;BMP180;4938;57.492;12.652;2022-09-09T07:05:14;81351.22;;;-136.68
9798;BMP180;4938;57.492;12.652;2022-09-09T07:08:02;81351.22;;;-136.68
9798;BMP180;4938;57.492;12.652;2022-09-09T07:10:49;81361.34;;;-136.68
9798;BMP180;4938;57.492;12.652;2022-09-09T07:13:37;81367.41;;;-136.68
9798;BMP180;4938;57.492;12.652;2022-09-09T07:16:24;81405.88;;;-136.68
9798;BMP180;4938;57.492;12.652;2022-09-09T07:19:13;81361.34;;;-136.68
9798;BMP180;4938;57.492;12.652;2022-09-09T07:22:01;81310.75;;;-136.68
9798;BMP180;4938;57.492;12.652;2022-09-09T07:24:49;81339.09;;;-136.68
9798;BMP180;4938;57.492;12.652;2022-09-09T07:27:36;81322.91;;;-136.68
9798;BMP180;4938;57.492;12.652;2022-09-09T07:30:22;81290.53;;;-136.68
9798;BMP180;4938;57.492;12.652;2022-09-09T07:33:09;81274.34;;;-136.68
9798;BMP180;4938;57.492;12.652;2022-09-09T07:36:03;81298.63;;;-136.68
9798;BMP180;4938;57.492;12.652;2022-09-09T07:38:53;80940.53;;;-136.68
9798;BMP180;4938;57.492;12.652;2022-09-09T07:41:42;81262.22;;;-136.68
9798;BMP180;4938;57.492;12.652;2022-09-09T07:44:29;81266.25;;;-136.68
9798;BMP180;4938;57.492;12.652;2022-09-09T07:47:17;81278.41;;;-136.68
9798;BMP180;4938;57.492;12.652;2022-09-09T07:50:06;81304.69;;;-136.68
9798;BMP180;4938;57.492;12.652;2022-09-09T07:52:54;81310.75;;;-136.68
9798;BMP180;4938;57.492;12.652;2022-09-09T07:55:42;81322.91;;;-136.68
9798;BMP180;4938;57.492;12.652;2022-09-09T07:58:29;81308.75;;;-136.68
9798;BMP180;4938;57.492;12.652;2022-09-09T08:01:22;81306.72;;;-136.68
9798;BMP180;4938;57.492;12.652;2022-09-09T08:04:11;81298.63;;;-136.68
9798;BMP180;4938;57.492;12.652;2022-09-09T08:07:01;81256.13;;;-136.68
9798;BMP180;4938;57.492;12.652;2022-09-09T08:09:48;81229.84;;;-136.68
9798;BMP180;4938;57.492;12.652;2022-09-09T08:12:37;81229.84;;;-136.68
9798;BMP180;4938;57.492;12.652;2022-09-09T08:15:24;81239.94;;;-136.68
9798;BMP180;4938;57.492;12.652;2022-09-09T08:18:11;81241.97;;;-136.68
9798;BMP180;4938;57.492;12.652;2022-09-09T08:20:57;81264.22;;;-136.68
9798;BMP180;4938;57.492;12.652;2022-09-09T08:23:46;80805.00;;;-136.68
9798;BMP180;4938;57.492;12.652;2022-09-09T08:26:35;81284.47;;;-136.68
9798;BMP180;4938;57.492;12.652;2022-09-09T08:29:24;81268.28;;;-136.68
9798;BMP180;4938;57.492;12.652;2022-09-09T08:32:11;81294.59;;;-136.68
9798;BMP180;4938;57.492;12.652;2022-09-09T08:34:58;81290.53;;;-136.68
9798;BMP180;4938;57.492;12.652;2022-09-09T08:37:45;81270.31;;;-136.68
9798;BMP180;4938;57.492;12.652;2022-09-09T08:40:39;81241.97;;;-136.68
9798;BMP180;4938;57.492;12.652;2022-09-09T08:43:28;81227.81;;;-136.68
9798;BMP180;4938;57.492;12.652;2022-09-09T08:46:25;81237.94;;;-136.68
9798;BMP180;4938;57.492;12.652;2022-09-09T08:49:32;81282.44;;;-136.68
9798;BMP180;4938;57.492;12.652;2022-09-09T08:52:28;81270.31;;;-136.68
9798;BMP180;4938;57.492;12.652;2022-09-09T08:55:22;81306.72;;;-136.68
9798;BMP180;4938;57.492;12.652;2022-09-09T08:58:14;81258.16;;;-136.68
9798;BMP180;4938;57.492;12.652;2022-09-09T09:01:16;81130.69;;;-136.68
9798;BMP180;4938;57.492;12.652;2022-09-09T09:04:25;81266.25;;;-136.68
9798;BMP180;4938;57.492;12.652;2022-09-09T09:07:24;81209.59;;;-136.68
9798;BMP180;4938;57.492;12.652;2022-09-09T09:10:22;81246.03;;;-136.68
9798;BMP180;4938;57.492;12.652;2022-09-09T09:13:15;81237.94;;;-136.68
9798;BMP180;4938;57.492;12.652;2022-09-09T09:16:10;81233.88;;;-136.68
9798;BMP180;4938;57.492;12.652;2022-09-09T09:19:00;81110.47;;;-136.68
9798;BMP180;4938;57.492;12.652;2022-09-09T09:21:53;81241.97;;;-136.68
9798;BMP180;4938;57.492;12.652;2022-09-09T09:24:48;81260.19;;;-136.68
9798;BMP180;4938;57.492;12.652;2022-09-09T09:27:40;81274.34;;;-136.68
9798;BMP180;4938;57.492;12.652;2022-09-09T09:30:35;81126.66;;;-136.68
9798;BMP180;4938;57.492;12.652;2022-09-09T09:33:30;81292.56;;;-136.68
9798;BMP180;4938;57.492;12.652;2022-09-09T09:36:19;81343.13;;;-136.68
9798;BMP180;4938;57.492;12.652;2022-09-09T09:39:08;81280.41;;;-136.68
9798;BMP180;4938;57.492;12.652;2022-09-09T09:41:55;81300.66;;;-136.68
9798;BMP180;4938;57.492;12.652;2022-09-09T09:44:43;81282.44;;;-136.68
9798;BMP180;4938;57.492;12.652;2022-09-09T09:47:30;81280.41;;;-136.68
9798;BMP180;4938;57.492;12.652;2022-09-09T09:50:19;81272.31;;;-136.68
9798;BMP180;4938;57.492;12.652;2022-09-09T09:53:20;81274.34;;;-136.68
9798;BMP180;4938;57.492;12.652;2022-09-09T09:56:10;81252.09;;;-136.68
9798;BMP180;4938;57.492;12.652;2022-09-09T09:58:58;81256.13;;;-136.68
9798;BMP180;4938;57.492;12.652;2022-09-09T10:01:45;81290.53;;;-136.68
9798;BMP180;4938;57.492;12.652;2022-09-09T10:04:32;81280.41;;;-136.68
9798;BMP180;4938;57.492;12.652;2022-09-09T10:07:20;81144.88;;;-136.68
9798;BMP180;4938;57.492;12.652;2022-09-09T10:10:12;81302.69;;;-136.68
9798;BMP180;4938;57.492;12.652;2022-09-09T10:13:07;81302.69;;;-136.68
9798;BMP180;4938;57.492;12.652;2022-09-09T10:16:06;81260.19;;;-136.68
9798;BMP180;4938;57.492;12.652;2022-09-09T10:18:59;81306.72;;;-136.68
9798;BMP180;4938;57.492;12.652;2022-09-09T10:21:56;81294.59;;;-136.68
9798;BMP180;4938;57.492;12.652;2022-09-09T10:25:02;81266.25;;;-136.68
9798;BMP180;4938;57.492;12.652;2022-09-09T10:28:11;81314.81;;;-136.68
9798;BMP180;4938;57.492;12.652;2022-09-09T10:31:14;81280.41;;;-136.68
9798;BMP180;4938;57.492;12.652;2022-09-09T10:34:14;81254.13;;;-136.68
9798;BMP180;4938;57.492;12.652;2022-09-09T10:37:15;81280.41;;;-136.68
9798;BMP180;4938;57.492;12.652;2022-09-09T10:40:19;81144.88;;;-136.68
9798;BMP180;4938;57.492;12.652;2022-09-09T10:43:21;81258.16;;;-136.68
9798;BMP180;4938;57.492;12.652;2022-09-09T10:46:18;81254.13;;;-136.68
9798;BMP180;4938;57.492;12.652;2022-09-09T10:49:18;81284.47;;;-136.68
9798;BMP180;4938;57.492;12.652;2022-09-09T10:52:14;81270.31;;;-136.68
9798;BMP180;4938;57.492;12.652;2022-09-09T10:55:09;81268.28;;;-136.68
9798;BMP180;4938;57.492;12.652;2022-09-09T10:57:58;81278.41;;;-136.68
9798;BMP180;4938;57.492;12.652;2022-09-09T11:00:51;81254.13;;;-136.68
9798;BMP180;4938;57.492;12.652;2022-09-09T11:03:41;81229.84;;;-136.68
9798;BMP180;4938;57.492;12.652;2022-09-09T11:06:32;81244.00;;;-136.68
9798;BMP180;4938;57.492;12.652;2022-09-09T11:09:23;81223.78;;;-136.68
9798;BMP180;4938;57.492;12.652;2022-09-09T11:12:15;81250.06;;;-136.68
9798;BMP180;4938;57.492;12.652;2022-09-09T11:15:06;81221.75;;;-136.68
9798;BMP180;4938;57.492;12.652;2022-09-09T11:17:56;81223.78;;;-136.68
9798;BMP180;4938;57.492;12.652;2022-09-09T11:20:47;81254.13;;;-136.68
9798;BMP180;4938;57.492;12.652;2022-09-09T11:23:40;81254.13;;;-136.68
9798;BMP180;4938;57.492;12.652;2022-09-09T11:26:32;81264.22;;;-136.68
9798;BMP180;4938;57.492;12.652;2022-09-09T11:29:44;81260.19;;;-136.68
9798;BMP180;4938;57.492;12.652;2022-09-09T11:32:56;81290.53;;;-136.68
9798;BMP180;4938;57.492;12.652;2022-09-09T11:35:58;81326.94;;;-136.68
9798;BMP180;4938;57.492;12.652;2022-09-09T11:38:50;81294.59;;;-136.68
9798;BMP180;4938;57.492;12.652;2022-09-09T11:41:37;81314.81;;;-136.68
9798;BMP180;4938;57.492;12.652;2022-09-09T11:44:28;81737.72;;;-136.68
9798;BMP180;4938;57.492;12.652;2022-09-09T11:47:22;81341.13;;;-136.68
9798;BMP180;4938;57.492;12.652;2022-09-09T11:50:28;81347.19;;;-136.68
9798;BMP180;4938;57.492;12.652;2022-09-09T11:53:22;81343.13;;;-136.68
9798;BMP180;4938;57.492;12.652;2022-09-09T11:56:11;81189.38;;;-136.68
9798;BMP180;4938;57.492;12.652;2022-09-09T11:59:01;81365.41;;;-136.68
9798;BMP180;4938;57.492;12.652;2022-09-09T12:01:50;81363.38;;;-136.68
9798;BMP180;4938;57.492;12.652;2022-09-09T12:04:43;81173.19;;;-136.68
9798;BMP180;4938;57.492;12.652;2022-09-09T12:07:37;81343.13;;;-136.68
9798;BMP180;4938;57.492;12.652;2022-09-09T12:10:26;81351.22;;;-136.68
9798;BMP180;4938;57.492;12.652;2022-09-09T12:13:17;81359.31;;;-136.68
9798;BMP180;4938;57.492;12.652;2022-09-09T12:16:04;81357.31;;;-136.68
9798;BMP180;4938;57.492;12.652;2022-09-09T12:18:51;81371.47;;;-136.68
9798;BMP180;4938;57.492;12.652;2022-09-09T12:21:56;81383.59;;;-136.68
9798;BMP180;4938;57.492;12.652;2022-09-09T12:24:53;81371.47;;;-136.68
9798;BMP180;4938;57.492;12.652;2022-09-09T12:27:46;81365.41;;;-136.68
9798;BMP180;4938;57.492;12.652;2022-09-09T12:30:44;81345.16;;;-136.68
9798;BMP180;4938;57.492;12.652;2022-09-09T12:33:36;81343.13;;;-136.68
9798;BMP180;4938;57.492;12.652;2022-09-09T12:36:29;81359.31;;;-136.68
9798;BMP180;4938;57.492;12.652;2022-09-09T12:39:19;81298.63;;;-136.68
9798;BMP180;4938;57.492;12.652;2022-09-09T12:42:16;82265.91;;;-136.68
9798;BMP180;4938;57.492;12.652;2022-09-09T12:45:14;81373.50;;;-136.68
9798;BMP180;4938;57.492;12.652;2022-09-09T12:48:04;81448.34;;;-136.68
9798;BMP180;4938;57.492;12.652;2022-09-09T12:50:52;81415.97;;;-136.68
9798;BMP180;4938;57.492;12.652;2022-09-09T12:53:39;81454.41;;;-136.68
9798;BMP180;4938;57.492;12.652;2022-09-09T12:56:28;81492.88;;;-136.68
9798;BMP180;4938;57.492;12.652;2022-09-09T12:59:24;81444.31;;;-136.68
9798;BMP180;4938;57.492;12.652;2022-09-09T13:02:17;81502.97;;;-136.68
9798;BMP180;4938;57.492;12.652;2022-09-09T13:05:15;81397.78;;;-136.68
9798;BMP180;4938;57.492;12.652;2022-09-09T13:08:04;81367.41;;;-136.68
9798;BMP180;4938;57.492;12.652;2022-09-09T13:10:53;81407.88;;;-136.68
9798;BMP180;4938;57.492;12.652;2022-09-09T13:13:43;81432.16;;;-136.68
9798;BMP180;4938;57.492;12.652;2022-09-09T13:16:38;81462.50;;;-136.68
9798;BMP180;4938;57.492;12.652;2022-09-09T13:19:25;81029.53;;;-136.68
9798;BMP180;4938;57.492;12.652;2022-09-09T13:22:20;81395.75;;;-136.68
9798;BMP180;4938;57.492;12.652;2022-09-09T13:25:18;81407.88;;;-136.68
9798;BMP180;4938;57.492;12.652;2022-09-09T13:28:20;81367.41;;;-136.68
9798;BMP180;4938;57.492;12.652;2022-09-09T13:31:20;81420.03;;;-136.68
9798;BMP180;4938;57.492;12.652;2022-09-09T13:34:12;81387.66;;;-136.68
9798;BMP180;4938;57.492;12.652;2022-09-09T13:37:02;81533.34;;;-136.68
9798;BMP180;4938;57.492;12.652;2022-09-09T13:39:52;81440.25;;;-136.68
9798;BMP180;4938;57.492;12.652;2022-09-09T13:42:41;81409.91;;;-136.68
9798;BMP180;4938;57.492;12.652;2022-09-09T13:45:29;81355.28;;;-136.68
9798;BMP180;4938;57.492;12.652;2022-09-09T13:48:18;81339.09;;;-136.68
9798;BMP180;4938;57.492;12.652;2022-09-09T13:51:26;81331.00;;;-136.68
9798;BMP180;4938;57.492;12.652;2022-09-09T13:54:18;81361.34;;;-136.68
9798;BMP180;4938;57.492;12.652;2022-09-09T13:57:11;81035.63;;;-136.68
9798;BMP180;4938;57.492;12.652;2022-09-09T14:00:00;81314.81;;;-136.68
9798;BMP180;4938;57.492;12.652;2022-09-09T14:02:47;81331.00;;;-136.68
9798;BMP180;4938;57.492;12.652;2022-09-09T14:05:35;81335.03;;;-136.68
9798;BMP180;4938;57.492;12.652;2022-09-09T14:08:25;81383.59;;;-136.68
9798;BMP180;4938;57.492;12.652;2022-09-09T14:11:13;81335.03;;;-136.68
9798;BMP180;4938;57.492;12.652;2022-09-09T14:14:00;81387.66;;;-136.68
9798;BMP180;4938;57.492;12.652;2022-09-09T14:16:47;81375.50;;;-136.68
9798;BMP180;4938;57.492;12.652;2022-09-09T14:19:35;81375.50;;;-136.68
9798;BMP180;4938;57.492;12.652;2022-09-09T14:22:22;81361.34;;;-136.68
9798;BMP180;4938;57.492;12.652;2022-09-09T14:25:11;81381.56;;;-136.68
9798;BMP180;4938;57.492;12.652;2022-09-09T14:27:58;81328.97;;;-136.68
9798;BMP180;4938;57.492;12.652;2022-09-09T14:30:46;81173.19;;;-136.68
9798;BMP180;4938;57.492;12.652;2022-09-09T14:33:33;81306.72;;;-136.68
9798;BMP180;4938;57.492;12.652;2022-09-09T14:36:20;81318.84;;;-136.68
9798;BMP180;4938;57.492;12.652;2022-09-09T14:39:07;81292.56;;;-136.68
9798;BMP180;4938;57.492;12.652;2022-09-09T14:41:55;81351.22;;;-136.68
9798;BMP180;4938;57.492;12.652;2022-09-09T14:44:42;81353.25;;;-136.68
9798;BMP180;4938;57.492;12.652;2022-09-09T14:47:29;81337.06;;;-136.68
9798;BMP180;4938;57.492;12.652;2022-09-09T14:50:16;81630.47;;;-136.68
9798;BMP180;4938;57.492;12.652;2022-09-09T14:53:03;81436.22;;;-136.68
9798;BMP180;4938;57.492;12.652;2022-09-09T14:55:49;81407.88;;;-136.68
9798;BMP180;4938;57.492;12.652;2022-09-09T14:58:38;81444.31;;;-136.68
9798;BMP180;4938;57.492;12.652;2022-09-09T15:01:25;81403.84;;;-136.68
9798;BMP180;4938;57.492;12.652;2022-09-09T15:04:13;81444.31;;;-136.68
9798;BMP180;4938;57.492;12.652;2022-09-09T15:07:00;81415.97;;;-136.68
9798;BMP180;4938;57.492;12.652;2022-09-09T15:09:47;81472.63;;;-136.68
9798;BMP180;4938;57.492;12.652;2022-09-09T15:12:35;81519.16;;;-136.68
9798;BMP180;4938;57.492;12.652;2022-09-09T15:15:23;81496.91;;;-136.68
9798;BMP180;4938;57.492;12.652;2022-09-09T15:18:10;81438.22;;;-136.68
9798;BMP180;4938;57.492;12.652;2022-09-09T15:20:58;81379.56;;;-136.68
9798;BMP180;4938;57.492;12.652;2022-09-09T15:23:45;81420.03;;;-136.68
9798;BMP180;4938;57.492;12.652;2022-09-09T15:26:33;81411.94;;;-136.68
9798;BMP180;4938;57.492;12.652;2022-09-09T15:29:19;81452.41;;;-136.68
9798;BMP180;4938;57.492;12.652;2022-09-09T15:32:08;81460.50;;;-136.68
9798;BMP180;4938;57.492;12.652;2022-09-09T15:34:55;81541.44;;;-136.68
9798;BMP180;4938;57.492;12.652;2022-09-09T15:37:42;81717.47;;;-136.68
9798;BMP180;4938;57.492;12.652;2022-09-09T15:40:28;81687.13;;;-136.68
9798;BMP180;4938;57.492;12.652;2022-09-09T15:43:17;81699.25;;;-136.68
9798;BMP180;4938;57.492;12.652;2022-09-09T15:46:22;81757.94;;;-136.68
9798;BMP180;4938;57.492;12.652;2022-09-09T15:49:15;81626.41;;;-136.68
9798;BMP180;4938;57.492;12.652;2022-09-09T15:52:02;81602.13;;;-136.68
9798;BMP180;4938;57.492;12.652;2022-09-09T15:54:49;81648.66;;;-136.68
9798;BMP180;4938;57.492;12.652;2022-09-09T15:57:36;81670.94;;;-136.68
9798;BMP180;4938;57.492;12.652;2022-09-09T16:00:23;81703.31;;;-136.68
9798;BMP180;4938;57.492;12.652;2022-09-09T16:03:10;81656.75;;;-136.68
9798;BMP180;4938;57.492;12.652;2022-09-09T16:06:00;81616.28;;;-136.68
9798;BMP180;4938;57.492;12.652;2022-09-09T16:08:48;81745.81;;;-136.68